Time;durP1;ratioP1;P1;durP2;ratioP2;P2;SDS_P1;SDS_P2;PMS_P1;PMS_P2;Temp;Humidity;BMP_temperature;BMP_pressure;BME280_temperature;BME280_humidity;BME280_pressure;Samples;Min_cycle;Max_cycle;Signal;HPM_P1;HPM_P2
2023/04/08 00:01:41;;;;;;;11.35;6.90;;;;;;;;;;4936357;28;20043;-70
2023/04/08 00:04:08;;;;;;;10.32;7.30;;;;;;;;;;4969232;28;20050;-70
2023/04/08 00:06:34;;;;;;;9.55;6.40;;;;;;;;;;4950711;28;20089;-70
2023/04/08 00:09:00;;;;;;;8.88;6.43;;;;;;;;;;4950720;28;20054;-70
2023/04/08 00:11:26;;;;;;;9.98;6.78;;;;;;;;;;4950037;28;20049;-70
2023/04/08 00:13:52;;;;;;;9.65;6.85;;;;;;;;;;4952321;28;20046;-69
2023/04/08 00:16:18;;;;;;;10.88;6.72;;;;;;;;;;4952493;28;20086;-69
2023/04/08 00:18:44;;;;;;;9.68;6.70;;;;;;;;;;4954933;28;20555;-70
2023/04/08 00:21:10;;;;;;;11.95;7.20;;;;;;;;;;4944095;28;20063;-69
2023/04/08 00:23:36;;;;;;;9.10;6.60;;;;;;;;;;4956153;28;20039;-69
2023/04/08 00:26:02;;;;;;;8.55;6.55;;;;;;;;;;4973524;28;20035;-70
2023/04/08 00:28:28;;;;;;;11.88;7.00;;;;;;;;;;4956199;28;20762;-69
2023/04/08 00:30:53;;;;;;;11.13;5.97;;;4.50;99.90;;;;;;4956181;28;20041;-70
2023/04/08 00:33:19;;;;;;;9.63;6.45;;;;;;;;;;4939600;28;20056;-70
2023/04/08 00:35:46;;;;;;;10.02;6.03;;;;;;;;;;4955967;28;20085;-69
2023/04/08 00:38:11;;;;;;;8.57;6.35;;;;;;;;;;4955543;28;20061;-69
2023/04/08 00:40:38;;;;;;;10.23;6.53;;;;;;;;;;4955207;28;20046;-70
2023/04/08 00:43:04;;;;;;;9.32;5.68;;;;;;;;;;4973117;28;20043;-70
2023/04/08 00:45:30;;;;;;;8.65;5.95;;;;;;;;;;4955676;28;20692;-70
2023/04/08 00:47:56;;;;;;;8.70;6.75;;;;;;;;;;4973092;28;20050;-69
2023/04/08 00:50:22;;;;;;;8.27;6.18;;;;;;;;;;4955357;28;20548;-70
2023/04/08 00:52:48;;;;;;;8.43;5.72;;;;;;;;;;4955352;28;20113;-69
2023/04/08 00:55:14;;;;;;;9.48;6.38;;;;;;;;;;4968059;28;20074;-70
2023/04/08 00:57:40;;;;;;;11.25;6.47;;;;;;;;;;4953239;28;20481;-69
2023/04/08 01:00:06;;;;;;;10.25;6.10;;;;;;;;;;4955557;28;20050;-70
2023/04/08 01:02:41;;;;;;;9.65;6.43;;;;;;;;;;4972550;28;20047;-69
2023/04/08 01:05:07;;;;;;;;;;;;;;;;;;4973057;28;20130;-70
2023/04/08 01:07:36;;;;;;;12.60;6.20;;;;;;;;;;4946557;28;20367;-69
2023/04/08 01:10:07;;;;;;;7.30;5.65;;;;;;;;;;4955259;28;20042;-69
2023/04/08 01:12:36;;;;;;;10.43;6.68;;;;;;;;;;4955519;28;20042;-70
2023/04/08 01:15:06;;;;;;;10.13;6.40;;;;;;;;;;4955634;28;20070;-69
2023/04/08 01:17:33;;;;;;;9.65;6.57;;;;;;;;;;4955147;28;20080;-69
2023/04/08 01:20:00;;;;;;;11.40;7.05;;;;;;;;;;4973050;28;20046;-69
2023/04/08 01:22:54;;;;;;;8.52;6.78;;;3.60;99.90;;;;;;4954973;28;20082;-70
2023/04/08 01:25:45;;;;;;;9.68;6.47;;;3.90;99.90;;;;;;4953193;28;20049;-69
2023/04/08 01:28:12;;;;;;;13.88;6.60;;;;;;;;;;4971984;28;20051;-70
2023/04/08 01:30:40;;;;;;;12.75;7.30;;;3.80;99.90;;;;;;4938775;28;20047;-69
2023/04/08 01:33:07;;;;;;;11.35;6.75;;;;;;;;;;4954806;28;20042;-70
2023/04/08 01:35:33;;;;;;;12.20;6.65;;;;;;;;;;4954892;28;20047;-69
2023/04/08 01:37:59;;;;;;;9.98;7.15;;;;;;;;;;4954546;28;20047;-70
2023/04/08 01:40:25;;;;;;;8.57;6.47;;;3.60;99.90;;;;;;4954865;28;20401;-69
2023/04/08 01:42:53;;;;;;;10.15;6.70;;;;;;;;;;4954200;28;20042;-70
2023/04/08 01:45:19;;;;;;;9.88;7.63;;;;;;;;;;4971401;28;21408;-70
2023/04/08 01:47:48;;;;;;;14.65;7.53;;;;;;;;;;4954373;28;20049;-69
2023/04/08 01:50:15;;;;;;;9.10;6.70;;;3.50;99.90;;;;;;4971307;28;20051;-70
2023/04/08 01:52:43;;;;;;;9.18;6.68;;;;;;;;;;4953812;28;20138;-69
2023/04/08 01:55:09;;;;;;;9.68;7.25;;;;;;;;;;4969826;28;20101;-69
2023/04/08 01:57:37;;;;;;;12.88;7.43;;;;;;;;;;4954145;28;20038;-69
2023/04/08 02:00:07;;;;;;;15.15;7.88;;;3.50;99.90;;;;;;4969150;28;20042;-69
2023/04/08 02:02:34;;;;;;;13.02;7.82;;;;;;;;;;4953320;28;20098;-69
2023/04/08 02:05:00;;;;;;;11.48;7.57;;;;;;;;;;4953172;28;20046;-70
2023/04/08 02:07:26;;;;;;;14.48;8.55;;;;;;;;;;4971705;28;20382;-70
2023/04/08 02:09:52;;;;;;;11.13;7.28;;;;;;;;;;4953081;28;20062;-70
2023/04/08 02:12:18;;;;;;;11.48;7.60;;;;;;;;;;4953802;28;20043;-70
2023/04/08 02:14:45;;;;;;;11.15;8.05;;;;;;;;;;4970928;28;20121;-70
2023/04/08 02:17:19;;;;;;;10.40;7.82;;;;;;;;;;4953524;28;20046;-69
2023/04/08 02:19:52;;;;;;;12.30;8.07;;;;;;;;;;4970525;28;20098;-69
2023/04/08 02:22:45;;;;;;;11.63;7.78;;;;;;;;;;4953358;28;20050;-69
2023/04/08 02:25:13;;;;;;;10.13;7.55;;;;;;;;;;4941008;28;20488;-69
2023/04/08 02:27:40;;;;;;;11.48;7.90;;;;;;;;;;4970697;28;20081;-70
2023/04/08 02:30:07;;;;;;;14.38;9.18;;;;;;;;;;4970204;28;20053;-69
2023/04/08 02:32:33;;;;;;;14.38;9.25;;;;;;;;;;4952892;28;20047;-69
2023/04/08 02:35:00;;;;;;;14.48;9.68;;;;;;;;;;4970131;28;20074;-69
2023/04/08 02:37:27;;;;;;;16.52;9.73;;;;;;;;;;4953458;28;20059;-69
2023/04/08 02:39:54;;;;;;;14.02;9.50;;;;;;;;;;4952891;28;20497;-70
2023/04/08 02:42:20;;;;;;;16.13;9.68;;;;;;;;;;4952127;28;20050;-68
2023/04/08 02:44:46;;;;;;;14.38;8.77;;;;;;;;;;4952867;28;20050;-69
2023/04/08 02:47:11;;;;;;;14.02;10.13;;;2.80;99.90;;;;;;4952826;28;20042;-70
2023/04/08 02:49:37;;;;;;;15.43;10.05;;;;;;;;;;4952390;28;20054;-70
2023/04/08 02:52:03;;;;;;;15.02;9.73;;;;;;;;;;4952688;28;20054;-68
2023/04/08 02:54:29;;;;;;;11.73;9.50;;;;;;;;;;4952889;28;20050;-69
2023/04/08 02:56:55;;;;;;;17.65;10.00;;;;;;;;;;4953207;28;20106;-68
2023/04/08 02:59:21;;;;;;;16.52;10.10;;;;;;;;;;4952673;28;20055;-70
2023/04/08 03:01:47;;;;;;;18.60;11.13;;;;;;;;;;4952701;28;20413;-69
2023/04/08 03:04:13;;;;;;;14.70;9.90;;;;;;;;;;4969766;28;20054;-69
2023/04/08 03:06:39;;;;;;;13.07;9.43;;;;;;;;;;4953141;28;20050;-69
2023/04/08 03:09:06;;;;;;;14.18;9.75;;;;;;;;;;4969721;28;20062;-69
2023/04/08 03:11:31;;;;;;;16.45;10.57;;;;;;;;;;4969771;28;20077;-69
2023/04/08 03:13:58;;;;;;;16.48;10.55;;;;;;;;;;4968873;28;20074;-70
2023/04/08 03:16:24;;;;;;;16.88;11.38;;;;;;;;;;4969702;28;20043;-69
2023/04/08 03:18:50;;;;;;;13.18;10.20;;;;;;;;;;4952037;28;20093;-69
2023/04/08 03:21:16;;;;;;;15.32;10.60;;;;;;;;;;4952374;28;20109;-70
2023/04/08 03:23:42;;;;;;;14.88;9.68;;;2.50;99.90;;;;;;4968825;28;20047;-69
2023/04/08 03:26:08;;;;;;;16.30;10.50;;;;;;;;;;4936718;28;20097;-70
2023/04/08 03:28:34;;;;;;;15.70;10.90;;;;;;;;;;4953126;28;20592;-68
2023/04/08 03:31:00;;;;;;;15.75;11.25;;;;;;;;;;4969763;28;20524;-70
2023/04/08 03:33:26;;;;;;;18.15;10.82;;;;;;;;;;4969970;28;20042;-70
2023/04/08 03:35:53;;;;;;;18.30;11.13;;;;;;;;;;4952377;28;20405;-69
2023/04/08 03:38:19;;;;;;;16.92;11.23;;;;;;;;;;4949630;28;20093;-69
2023/04/08 03:40:45;;;;;;;15.43;11.48;;;;;;;;;;4951987;28;20046;-69
2023/04/08 03:43:11;;;;;;;16.45;11.02;;;;;;;;;;4952077;28;20051;-70
2023/04/08 03:45:38;;;;;;;20.40;11.23;;;;;;;;;;4969103;28;20324;-70
2023/04/08 03:48:04;;;;;;;20.42;12.98;;;;;;;;;;4952410;28;20050;-69
2023/04/08 03:50:30;;;;;;;15.95;11.23;;;;;;;;;;4952275;28;20807;-69
2023/04/08 03:52:56;;;;;;;17.65;11.77;;;;;;;;;;4969530;28;20140;-69
2023/04/08 03:55:22;;;;;;;17.25;10.73;;;;;;;;;;4951800;28;20078;-69
2023/04/08 03:57:48;;;;;;;19.77;12.82;;;;;;;;;;4952646;28;20516;-69
2023/04/08 04:00:14;;;;;;;19.60;13.10;;;;;;;;;;4952282;28;20532;-70
2023/04/08 04:02:40;;;;;;;20.20;12.68;;;;;;;;;;4952270;28;20069;-69
2023/04/08 04:05:06;;;;;;;19.27;11.90;;;;;;;;;;4951673;28;20042;-69
2023/04/08 04:07:32;;;;;;;16.90;11.38;;;;;;;;;;4969409;28;20050;-69
2023/04/08 04:09:58;;;;;;;17.30;11.55;;;2.20;99.90;;;;;;4951584;28;20047;-70
2023/04/08 04:12:24;;;;;;;18.70;12.68;;;;;;;;;;4969443;28;20043;-69
2023/04/08 04:14:50;;;;;;;22.60;12.90;;;;;;;;;;4968515;28;20050;-69
2023/04/08 04:17:16;;;;;;;22.95;13.38;;;;;;;;;;4951956;28;20465;-69
2023/04/08 04:19:42;;;;;;;24.00;14.50;;;;;;;;;;4935950;28;20043;-69
2023/04/08 04:22:08;;;;;;;21.25;13.43;;;;;;;;;;4949620;28;20051;-69
2023/04/08 04:24:36;;;;;;;20.63;13.02;;;;;;;;;;4952677;28;20126;-68
2023/04/08 04:27:03;;;;;;;22.92;14.50;;;;;;;;;;4950096;28;20046;-68
2023/04/08 04:29:30;;;;;;;24.23;14.27;;;;;;;;;;4935547;28;20110;-69
2023/04/08 04:31:56;;;;;;;23.95;15.73;;;;;;;;;;4949419;28;20053;-69
2023/04/08 04:34:22;;;;;;;23.95;13.88;;;;;;;;;;4946878;28;20050;-68
2023/04/08 04:36:48;;;;;;;26.83;14.70;;;;;;;;;;4952834;28;20050;-69
2023/04/08 04:39:14;;;;;;;20.85;13.85;;;;;;;;;;4948105;28;20051;-70
2023/04/08 04:41:40;;;;;;;21.65;14.30;;;;;;;;;;4948527;28;20489;-69
2023/04/08 04:44:06;;;;;;;22.48;14.00;;;;;;;;;;4973550;28;20050;-68
2023/04/08 04:46:32;;;;;;;22.50;13.82;;;;;;;;;;4947565;28;20721;-69
2023/04/08 04:48:58;;;;;;;22.05;13.32;;;;;;;;;;4968860;28;20053;-69
2023/04/08 04:51:25;;;;;;;24.35;15.13;;;;;;;;;;4945035;28;20082;-69
2023/04/08 04:53:52;;;;;;;22.42;14.10;;;;;;;;;;4942451;28;20140;-69
2023/04/08 04:56:18;;;;;;;23.10;13.73;;;;;;;;;;4948717;28;20066;-68
2023/04/08 04:58:44;;;;;;;23.33;14.85;;;;;;;;;;4946970;28;20047;-68
2023/04/08 05:01:10;;;;;;;24.42;14.55;;;;;;;;;;4944816;29;20059;-70
2023/04/08 05:03:36;;;;;;;23.80;15.85;;;;;;;;;;4945605;28;20051;-70
2023/04/08 05:06:02;;;;;;;21.15;14.60;;;;;;;;;;4947475;29;20061;-70
2023/04/08 05:08:30;;;;;;;22.40;14.80;;;;;;;;;;4945569;28;20047;-70
2023/04/08 05:10:58;;;;;;;26.15;14.55;;;;;;;;;;4948403;28;20039;-68
2023/04/08 05:13:24;;;;;;;22.42;14.52;;;;;;;;;;4948333;28;20051;-70
2023/04/08 05:15:50;;;;;;;21.08;13.65;;;;;;;;;;4948702;28;20058;-70
2023/04/08 05:18:16;;;;;;;22.73;13.77;;;;;;;;;;4948483;28;20110;-70
2023/04/08 05:20:42;;;;;;;21.27;13.40;;;;;;;;;;4950717;28;20047;-71
2023/04/08 05:23:08;;;;;;;24.45;15.10;;;;;;;;;;4948364;28;20390;-71
2023/04/08 05:25:35;;;;;;;26.45;14.68;;;;;;;;;;4948483;28;20050;-71
2023/04/08 05:28:01;;;;;;;22.02;14.40;;;;;;;;;;4949575;28;20043;-71
2023/04/08 05:30:26;;;;;;;25.73;14.88;;;;;;;;;;4951093;28;20126;-70
2023/04/08 05:32:52;;;;;;;23.40;14.57;;;;;;;;;;4949182;28;20043;-70
2023/04/08 05:35:18;;;;;;;24.40;14.88;;;;;;;;;;4949163;28;20055;-71
2023/04/08 05:37:44;;;;;;;23.15;14.80;;;;;;;;;;4947947;29;20098;-70
2023/04/08 05:40:11;;;;;;;23.20;14.20;;;;;;;;;;4932551;28;20054;-70
2023/04/08 05:42:37;;;;;;;23.67;14.50;;;;;;;;;;4948914;29;20386;-71
2023/04/08 05:45:03;;;;;;;23.45;15.48;;;;;;;;;;4951317;28;20505;-71
2023/04/08 05:47:29;;;;;;;25.67;16.20;;;;;;;;;;4948506;28;20508;-70
2023/04/08 05:49:55;;;;;;;26.88;15.30;;;;;;;;;;4948484;28;20051;-70
2023/04/08 05:52:21;;;;;;;24.33;15.73;;;;;;;;;;4935987;29;20070;-70
2023/04/08 05:54:47;;;;;;;20.30;14.60;;;;;;;;;;4948354;28;20050;-71
2023/04/08 05:57:13;;;;;;;22.70;15.05;;;;;;;;;;4947531;28;20139;-69
2023/04/08 05:59:39;;;;;;;23.95;15.82;;;;;;;;;;4949869;28;20047;-70
2023/04/08 06:02:05;;;;;;;23.63;14.70;;;;;;;;;;4950319;28;20043;-69
2023/04/08 06:04:31;;;;;;;22.33;13.23;;;;;;;;;;4947323;28;20047;-70
2023/04/08 06:06:58;;;;;;;21.58;14.48;;;;;;;;;;4946965;29;20043;-70
2023/04/08 06:09:25;;;;;;;23.00;15.02;;;;;;;;;;4948273;28;20681;-71
2023/04/08 06:11:51;;;;;;;24.50;14.38;;;;;;;;;;4951792;28;20039;-71
2023/04/08 06:14:17;;;;;;;24.80;15.45;;;;;;;;;;4951651;28;20035;-71
2023/04/08 06:16:43;;;;;;;25.30;15.70;;;;;;;;;;4947806;28;20097;-71
2023/04/08 06:19:09;;;;;;;22.98;15.45;;;;;;;;;;4955211;28;20063;-71
2023/04/08 06:21:35;;;;;;;25.13;15.18;;;;;;;;;;4948633;29;20070;-71
2023/04/08 06:24:01;;;;;;;25.15;15.57;;;;;;;;;;4949267;28;20043;-70
2023/04/08 06:26:27;;;;;;;22.98;15.00;;;;;;;;;;4948788;29;20074;-73
2023/04/08 06:28:53;;;;;;;23.80;14.93;;;;;;;;;;4937954;28;20835;-72
2023/04/08 06:31:19;;;;;;;22.02;14.50;;;;;;;;;;4946398;29;20039;-74
2023/04/08 06:33:45;;;;;;;21.27;13.85;;;;;;;;;;4951044;28;20130;-76
2023/04/08 06:36:12;;;;;;;22.73;14.38;;;;;;;;;;4948660;28;20663;-72
2023/04/08 06:38:38;;;;;;;21.48;14.40;;;;;;;;;;4942115;28;20430;-71
2023/04/08 06:41:05;;;;;;;22.75;14.18;;;5.40;99.90;;;;;;4946650;28;20157;-69
2023/04/08 06:43:31;;;;;;;23.42;15.15;;;;;;;;;;4947602;29;20051;-71
2023/04/08 06:45:57;;;;;;;24.38;15.95;;;;;;;;;;4948324;28;20146;-72
2023/04/08 06:48:27;;;;;;;23.40;14.88;;;;;;;;;;4947460;29;20173;-73
2023/04/08 06:50:56;;;;;;;24.98;16.10;;;;;;;;;;4953227;28;20043;-73
2023/04/08 06:53:28;;;;;;;23.52;15.75;;;;;;;;;;4953518;28;20054;-70
2023/04/08 06:55:54;;;;;;;27.65;16.55;;;;;;;;;;4951050;28;20050;-73
2023/04/08 06:58:20;;;;;;;25.77;16.70;;;;;;;;;;4951734;28;20105;-73
2023/04/08 07:00:47;;;;;;;27.00;16.38;;;;;;;;;;4948213;28;20039;-72
2023/04/08 07:03:13;;;;;;;25.65;16.85;;;;;;;;;;4950805;28;20517;-73
2023/04/08 07:05:40;;;;;;;27.27;17.13;;;;;;;;;;4971672;28;20201;-73
2023/04/08 07:08:06;;;;;;;26.05;16.35;;;;;;;;;;4935081;28;20054;-71
2023/04/08 07:10:34;;;;;;;25.75;16.85;;;;;;;;;;4953507;28;20050;-74
2023/04/08 07:13:00;;;;;;;28.50;18.35;;;;;;;;;;4970259;28;20092;-73
2023/04/08 07:15:26;;;;;;;26.85;17.33;;;;;;;;;;4938364;28;20493;-72
2023/04/08 07:17:55;;;;;;;29.33;16.60;;;;;;;;;;4951704;28;20125;-74
2023/04/08 07:20:21;;;;;;;32.55;18.38;;;;;;;;;;4969235;28;20046;-70
2023/04/08 07:22:47;;;;;;;28.77;17.60;;;;;;;;;;4953724;28;20401;-71
2023/04/08 07:25:13;;;;;;;31.52;19.30;;;;;;;;;;4952115;28;20125;-69
2023/04/08 07:27:40;;;;;;;28.83;18.42;;;;;;;;;;4954057;28;20158;-70
2023/04/08 07:30:06;;;;;;;34.05;19.75;;;;;;;;;;4949906;28;20057;-71
2023/04/08 07:32:33;;;;;;;33.60;19.48;;;;;;;;;;4952257;28;20122;-71
2023/04/08 07:34:59;;;;;;;34.65;21.55;;;;;;;;;;4974121;28;20149;-70
2023/04/08 07:37:25;;;;;;;33.72;21.35;;;;;;;;;;4968363;28;20441;-70
2023/04/08 07:39:51;;;;;;;33.53;19.77;;;;;;;;;;4949448;28;20105;-70
2023/04/08 07:42:17;;;;;;;34.38;20.83;;;;;;;;;;4949371;28;20069;-70
2023/04/08 07:44:43;;;;;;;34.05;20.02;;;;;;;;;;4967487;28;20053;-70
2023/04/08 07:47:10;;;;;;;36.85;21.25;;;;;;;;;;4951845;28;20093;-70
2023/04/08 07:49:36;;;;;;;34.28;20.90;;;;;;;;;;4948930;28;20121;-71
2023/04/08 07:52:02;;;;;;;33.80;20.98;;;;;;;;;;4949547;28;20149;-71
2023/04/08 07:54:30;;;;;;;38.42;21.45;;;;;;;;;;4949637;28;20058;-71
2023/04/08 07:56:58;;;;;;;36.03;20.95;;;;;;;;;;4950720;28;20448;-69
2023/04/08 07:59:24;;;;;;;34.85;20.98;;;;;;;;;;4967301;28;20736;-70
2023/04/08 08:01:50;;;;;;;34.47;21.27;;;;;;;;;;4953479;28;20795;-71
2023/04/08 08:04:17;;;;;;;33.38;21.10;;;;;;;;;;4952081;28;20412;-71
2023/04/08 08:06:43;;;;;;;32.38;21.40;;;;;;;;;;4968408;28;20043;-70
2023/04/08 08:09:09;;;;;;;33.15;19.00;;;;;;;;;;4934412;28;20553;-71
2023/04/08 08:11:35;;;;;;;30.20;19.08;;;;;;;;;;4951842;28;20141;-72
2023/04/08 08:14:04;;;;;;;34.72;20.98;;;;;;;;;;4960506;28;20101;-70
2023/04/08 08:16:30;;;;;;;34.10;18.48;;;;;;;;;;4952399;28;20699;-71
2023/04/08 08:18:57;;;;;;;30.77;20.33;;;;;;;;;;4953712;28;20050;-70
2023/04/08 08:21:23;;;;;;;32.40;19.95;;;;;;;;;;4951453;28;20061;-70
2023/04/08 08:23:51;;;;;;;27.67;19.00;;;;;;;;;;4952070;28;20047;-70
2023/04/08 08:26:17;;;;;;;27.33;18.30;;;;;;;;;;4968072;28;20038;-70
2023/04/08 08:28:43;;;;;;;30.45;19.48;;;;;;;;;;4951921;28;20043;-71
2023/04/08 08:31:10;;;;;;;25.58;18.08;;;;;;;;;;4967346;28;20515;-73
2023/04/08 08:33:36;;;;;;;27.40;17.92;;;;;;;;;;4954217;28;20074;-70
2023/04/08 08:36:04;;;;;;;25.42;18.48;;;;;;;;;;4949641;28;21208;-72
2023/04/08 08:38:30;;;;;;;30.00;18.35;;;;;;;;;;4945831;28;20054;-70
2023/04/08 08:40:59;;;;;;;27.95;18.13;;;;;;;;;;4971638;28;20464;-71
2023/04/08 08:43:26;;;;;;;25.30;19.20;;;;;;;;;;4956227;28;20035;-76
2023/04/08 08:45:52;;;;;;;24.48;17.58;;;;;;;;;;4970722;28;20042;-72
2023/04/08 08:48:18;;;;;;;24.02;16.90;;;;;;;;;;4957047;28;20042;-73
2023/04/08 08:50:44;;;;;;;24.30;16.88;;;;;;;;;;4953532;28;20046;-75
2023/04/08 08:53:10;;;;;;;24.08;16.15;;;;;;;;;;4958433;28;20872;-72
2023/04/08 08:55:38;;;;;;;23.85;17.00;;;;;;;;;;4954146;28;20059;-73
2023/04/08 08:58:06;;;;;;;22.95;16.67;;;;;;;;;;4958373;28;20051;-75
2023/04/08 09:00:36;;;;;;;21.25;15.90;;;10.80;99.90;;;;;;4954420;28;20793;-74
2023/04/08 09:03:19;;;;;;;23.35;16.42;;;;;;;;;;4953863;28;20057;-72
2023/04/08 09:06:04;;;;;;;24.67;16.73;;;10.80;99.90;;;;;;4954885;28;20077;-72
2023/04/08 09:08:30;;;;;;;21.55;16.15;;;;;;;;;;4974884;28;20088;-71
2023/04/08 09:11:13;;;;;;;22.20;15.80;;;11.60;99.90;;;;;;4953408;28;20078;-73
2023/04/08 09:13:39;;;;;;;23.55;17.10;;;11.60;99.90;;;;;;4974720;28;20035;-74
2023/04/08 09:16:07;;;;;;;28.08;18.10;;;11.60;99.90;;;;;;4952777;28;20043;-73
2023/04/08 09:18:34;;;;;;;24.23;16.33;;;;;;;;;;4953280;28;20038;-72
2023/04/08 09:21:04;;;;;;;26.30;15.95;;;11.80;99.90;;;;;;4937195;28;20079;-73
2023/04/08 09:23:47;;;;;;;22.98;16.65;;;12.00;99.90;;;;;;4953209;28;20057;-72
2023/04/08 09:26:18;;;;;;;22.17;15.15;;;11.90;99.90;;;;;;4968195;28;20046;-72
2023/04/08 09:29:06;;;;;;;20.73;14.65;;;11.90;99.90;;;;;;4969895;28;20699;-74
2023/04/08 09:31:39;;;;;;;21.52;14.80;;;11.70;99.90;;;;;;4952529;28;20121;-73
2023/04/08 09:34:14;;;;;;;20.48;15.45;;;11.80;99.90;;;;;;4965116;28;20058;-71
2023/04/08 09:36:40;;;;;;;21.73;15.33;;;;;;;;;;4952250;28;20181;-74
2023/04/08 09:39:06;;;;;;;17.60;13.80;;;;;;;;;;4957934;28;20067;-76
2023/04/08 09:41:37;;;;;;;19.17;13.70;;;11.90;99.90;;;;;;4953574;28;20742;-76
2023/04/08 09:44:07;;;;;;;19.70;13.80;;;;;;;;;;4949388;28;20085;-73
2023/04/08 09:46:52;;;;;;;20.48;13.35;;;;;;;;;;4965322;28;21434;-74
2023/04/08 09:49:24;;;;;;;19.85;13.88;;;12.50;99.90;;;;;;4948195;28;20051;-75
2023/04/08 09:51:50;;;;;;;19.17;13.40;;;;;;;;;;4947522;28;20055;-76
2023/04/08 09:55:07;;;;;;;18.10;13.93;;;12.80;99.90;;;;;;4968426;28;20053;-75
2023/04/08 09:57:38;;;;;;;;;;;13.20;99.90;;;;;;4947430;28;20058;-75
2023/04/08 10:00:13;;;;;;;18.27;13.05;;;13.20;99.90;;;;;;4948476;28;19944;-75
2023/04/08 10:03:18;;;;;;;19.90;13.70;;;13.00;99.90;;;;;;4963408;28;20061;-76
2023/04/08 10:05:45;;;;;;;19.25;13.30;;;13.40;99.90;;;;;;4969270;28;20079;-75
2023/04/08 10:08:12;;;;;;;17.65;12.32;;;13.50;99.90;;;;;;4969455;28;20102;-76
2023/04/08 10:10:39;;;;;;;18.08;12.80;;;13.60;99.90;;;;;;4952356;28;20091;-75
2023/04/08 10:13:06;;;;;;;15.80;12.02;;;13.70;99.90;;;;;;4952292;28;20547;-77
2023/04/08 10:15:33;;;;;;;17.15;12.20;;;13.50;99.90;;;;;;4963321;28;20058;-72
2023/04/08 10:18:01;;;;;;;15.55;12.60;;;13.50;99.90;;;;;;4952395;28;20050;-77
2023/04/08 10:20:33;;;;;;;16.35;12.52;;;13.30;99.90;;;;;;4936024;28;20043;-77
2023/04/08 10:23:00;;;;;;;17.73;12.00;;;13.30;99.90;;;;;;4952145;28;20081;-78
2023/04/08 10:25:30;;;;;;;16.30;12.38;;;13.40;99.90;;;;;;4951619;28;20042;-77
2023/04/08 10:27:56;;;;;;;15.65;12.23;;;;;;;;;;4940268;28;20042;-78
2023/04/08 10:30:31;;;;;;;15.23;10.95;;;;;;;;;;4952163;28;20038;-78
2023/04/08 10:33:00;;;;;;;15.75;11.48;;;;;;;;;;4950794;28;20533;-78
2023/04/08 10:35:34;;;;;;;13.43;10.45;;;13.10;99.90;;;;;;4950687;28;20521;-78
2023/04/08 10:38:01;;;;;;;16.05;11.68;;;12.90;99.90;;;;;;4969226;28;20564;-78
2023/04/08 10:40:27;;;;;;;14.95;12.65;;;;;;;;;;4969463;28;20433;-78
2023/04/08 10:42:59;;;;;;;14.98;11.77;;;13.10;99.90;;;;;;4952371;28;20501;-78
2023/04/08 10:45:25;;;;;;;14.30;11.35;;;13.30;99.90;;;;;;4951600;28;20074;-78
2023/04/08 10:47:51;;;;;;;12.80;10.70;;;13.30;99.90;;;;;;4948926;28;20042;-78
2023/04/08 10:50:22;;;;;;;13.18;10.82;;;13.40;99.90;;;;;;4932859;28;20081;-78
2023/04/08 10:52:52;;;;;;;15.45;11.25;;;;;;;;;;4935732;28;20062;-78
2023/04/08 10:55:25;;;;;;;13.48;11.07;;;13.50;99.90;;;;;;4948715;28;20149;-77
2023/04/08 10:57:51;;;;;;;15.18;11.52;;;;;;;;;;4952747;28;20043;-78
2023/04/08 11:00:18;;;;;;;15.20;11.25;;;13.60;99.90;;;;;;4971554;28;20436;-77
2023/04/08 11:02:44;;;;;;;14.90;11.55;;;;;;;;;;4956342;28;20051;-77
2023/04/08 11:05:12;;;;;;;14.80;11.18;;;13.50;99.90;;;;;;4951542;28;20465;-77
2023/04/08 11:07:41;;;;;;;14.52;10.93;;;13.30;99.90;;;;;;4951574;28;20039;-76
2023/04/08 11:10:08;;;;;;;14.43;10.55;;;13.10;99.90;;;;;;4941337;28;20082;-75
2023/04/08 11:12:34;;;;;;;12.88;10.48;;;13.20;99.90;;;;;;4951245;28;21163;-76
2023/04/08 11:15:02;;;;;;;14.20;11.23;;;12.90;99.90;;;;;;4951135;28;20125;-75
2023/04/08 11:17:29;;;;;;;13.85;11.30;;;;;;;;;;4956057;28;20050;-78
2023/04/08 11:19:55;;;;;;;13.10;11.05;;;;;;;;;;4951389;28;20117;-77
2023/04/08 11:22:22;;;;;;;17.63;11.30;;;13.00;99.90;;;;;;4953202;28;20058;-76
2023/04/08 11:24:48;;;;;;;14.38;10.88;;;;;;;;;;4951087;28;20046;-76
2023/04/08 11:27:14;;;;;;;16.08;10.73;;;12.80;99.90;;;;;;4968229;28;20109;-76
2023/04/08 11:29:40;;;;;;;13.77;11.07;;;;;;;;;;4951676;28;20046;-76
2023/04/08 11:32:07;;;;;;;13.35;10.63;;;;;;;;;;4950539;28;20047;-77
2023/04/08 11:34:38;;;;;;;16.17;11.50;;;12.90;99.90;;;;;;4968916;28;20448;-77
2023/04/08 11:37:04;;;;;;;16.33;12.38;;;;;;;;;;4967897;28;20165;-76
2023/04/08 11:39:30;;;;;;;13.20;11.13;;;;;;;;;;4968331;28;20471;-75
2023/04/08 11:41:56;;;;;;;14.73;11.38;;;12.80;99.90;;;;;;4951313;28;20042;-73
2023/04/08 11:44:34;;;;;;;16.50;11.90;;;12.80;99.90;;;;;;4950099;28;20046;-77
2023/04/08 11:47:01;;;;;;;15.15;11.77;;;;;;;;;;4947055;28;20038;-76
2023/04/08 11:49:27;;;;;;;15.85;11.02;;;13.00;99.90;;;;;;4949948;28;20169;-76
2023/04/08 11:51:55;;;;;;;13.65;11.07;;;12.70;99.90;;;;;;4950137;28;20055;-76
2023/04/08 11:54:31;;;;;;;13.50;10.30;;;12.70;99.90;;;;;;4960175;28;20055;-76
2023/04/08 11:56:57;;;;;;;16.17;10.15;;;12.60;99.90;;;;;;4965113;28;20043;-76
2023/04/08 11:59:24;;;;;;;18.52;11.50;;;12.70;99.90;;;;;;4968435;28;20493;-75
2023/04/08 12:01:51;;;;;;;14.02;10.77;;;12.80;99.90;;;;;;4949573;28;20035;-75
2023/04/08 12:04:17;;;;;;;13.18;10.43;;;;;;;;;;4950919;28;20058;-75
2023/04/08 12:06:45;;;;;;;12.15;9.82;;;;;;;;;;4949440;28;20042;-75
2023/04/08 12:09:11;;;;;;;14.02;10.23;;;;;;;;;;4949739;28;20039;-75
2023/04/08 12:11:37;;;;;;;12.02;9.85;;;;;;;;;;4949949;28;20057;-75
2023/04/08 12:14:04;;;;;;;13.02;9.85;;;;;;;;;;4951718;28;20039;-73
2023/04/08 12:16:29;;;;;;;12.32;9.32;;;12.40;99.90;;;;;;4954396;28;20062;-73
2023/04/08 12:18:55;;;;;;;15.05;10.07;;;;;;;;;;4954071;28;20058;-74
2023/04/08 12:21:21;;;;;;;12.65;9.80;;;12.30;99.90;;;;;;4959004;28;20050;-74
2023/04/08 12:23:47;;;;;;;14.02;11.43;;;;;;;;;;4953998;28;20051;-74
2023/04/08 12:26:13;;;;;;;15.23;9.00;;;;;;;;;;4953693;28;20081;-73
2023/04/08 12:28:39;;;;;;;12.40;9.32;;;;;;;;;;4954456;28;20045;-74
2023/04/08 12:31:05;;;;;;;10.73;8.80;;;;;;;;;;4954331;28;20049;-73
2023/04/08 12:33:31;;;;;;;12.07;9.07;;;;;;;;;;4953451;28;20042;-74
2023/04/08 12:36:00;;;;;;;11.23;9.15;;;;;;;;;;4954029;28;20054;-74
2023/04/08 12:38:26;;;;;;;10.90;8.27;;;;;;;;;;4971460;28;20038;-74
2023/04/08 12:40:52;;;;;;;12.75;10.15;;;12.10;99.90;;;;;;4973329;28;20560;-74
2023/04/08 12:43:18;;;;;;;12.77;9.60;;;;;;;;;;4953998;28;20053;-74
2023/04/08 12:45:44;;;;;;;13.10;9.57;;;;;;;;;;4953897;28;20049;-73
2023/04/08 12:48:10;;;;;;;14.48;10.20;;;12.20;99.90;;;;;;4969139;28;20089;-73
2023/04/08 12:50:36;;;;;;;13.13;10.23;;;;;;;;;;4959116;28;20070;-72
2023/04/08 12:53:08;;;;;;;12.25;9.15;;;12.00;99.90;;;;;;4970518;28;20523;-73
2023/04/08 12:55:47;;;;;;;16.17;10.18;;;11.90;99.90;;;;;;4963540;28;20049;-74
2023/04/08 12:58:15;;;;;;;15.80;9.88;;;;;;;;;;4958747;28;20086;-73
2023/04/08 13:00:45;;;;;;;10.63;8.45;;;;;;;;;;4955372;28;20061;-72
2023/04/08 13:03:11;;;;;;;13.32;9.40;;;;;;;;;;4957666;28;20085;-73
2023/04/08 13:05:37;;;;;;;11.77;9.07;;;11.50;99.90;;;;;;4955894;28;20051;-71
2023/04/08 13:08:02;;;;;;;11.25;9.52;;;11.50;99.90;;;;;;4971359;28;20038;-71
2023/04/08 13:10:28;;;;;;;13.07;8.75;;;;;;;;;;4972647;28;20472;-71
2023/04/08 13:12:54;;;;;;;13.75;9.40;;;11.60;99.90;;;;;;4954308;28;20181;-72
2023/04/08 13:15:20;;;;;;;11.15;8.77;;;11.50;99.90;;;;;;4956319;28;20058;-72
2023/04/08 13:17:46;;;;;;;12.75;9.05;;;;;;;;;;4971251;28;20042;-72
2023/04/08 13:20:12;;;;;;;11.60;8.85;;;;;;;;;;4953380;28;20050;-72
2023/04/08 13:22:37;;;;;;;13.82;9.45;;;11.30;99.90;;;;;;4953951;28;20401;-72
2023/04/08 13:25:12;;;;;;;15.00;9.18;;;11.30;99.90;;;;;;4955178;28;20038;-73
2023/04/08 13:27:38;;;;;;;13.60;9.43;;;;;;;;;;4951987;28;20042;-73
2023/04/08 13:30:04;;;;;;;15.10;9.65;;;;;;;;;;4967793;28;20572;-73
2023/04/08 13:32:30;;;;;;;13.70;9.98;;;;;;;;;;4948298;28;20047;-73
2023/04/08 13:34:56;;;;;;;13.68;10.32;;;;;;;;;;4954196;28;20070;-72
2023/04/08 13:37:22;;;;;;;16.33;10.85;;;;;;;;;;4969882;28;20129;-72
2023/04/08 13:39:48;;;;;;;15.30;10.80;;;;;;;;;;4950654;28;20390;-72
2023/04/08 13:42:14;;;;;;;16.48;10.63;;;;;;;;;;4970958;28;20053;-72
2023/04/08 13:44:40;;;;;;;14.48;10.73;;;;;;;;;;4971469;28;20043;-71
2023/04/08 13:47:06;;;;;;;16.98;11.57;;;;;;;;;;4951272;28;20049;-72
2023/04/08 13:49:50;;;;;;;14.82;11.23;;;11.20;99.90;;;;;;4938280;28;20591;-73
2023/04/08 13:55:46;;;;;;;17.23;12.07;;;;;;;;;;4976941;28;20065;-72
2023/04/08 13:58:11;;;;;;;25.63;16.23;;;;;;;;;;4953917;28;20485;-70
2023/04/08 14:00:37;;;;;;;26.83;16.67;;;;;;;;;;4933269;28;20050;-74
2023/04/08 14:03:03;;;;;;;18.80;12.65;;;;;;;;;;4953758;28;20055;-78